UAE56K OMDB-EGLL
Flight info
| Callsign | UAE56K |
|---|---|
| Flight time | N/A |
| Altitude | 34000 |
| Route | RIDAP M557 TUMAK L602 GADSI M860 RESAK/N0493F360 M860 NINVA UM860 ODALI UL852 NEGEM DCT ARGES DCT TEGRI DCT ABETI/N0476F380 DCT RENKA DCT INBED DCT BOMBI DCT ADKUV DCT SOGRI DCT DENUT L608 LOGAN |
| Aircraft | B77W/H-SDE1E2E3FGHIJ2J3J4J5M1RWXY/LB1D1 |
Departure
| Time | 2026-04-26 14:12 |
|---|---|
| Airport | Dubai International Airport (OMDB) |
Arrival
| Time | N/A |
|---|---|
| Airport | London Heathrow Airport (EGLL) |
| Time | Latitude | Longitude | Altitude | Speed | Heading |
|---|---|---|---|---|---|
| 2026-04-26 13:10 | 25.24282 | 55.37100 | 76 ft | 0 kts | 31° |
| 2026-04-26 13:55 | 25.24275 | 55.37096 | 76 ft | 2 kts | 31° |
| 2026-04-26 13:55 | 25.24246 | 55.37075 | 76 ft | 2 kts | 39° |
| 2026-04-26 13:56 | 25.24235 | 55.37064 | 76 ft | 2 kts | 56° |
| 2026-04-26 13:56 | 25.24230 | 55.37053 | 76 ft | 2 kts | 65° |
| 2026-04-26 13:56 | 25.24225 | 55.37038 | 76 ft | 2 kts | 78° |
| 2026-04-26 13:56 | 25.24223 | 55.37026 | 76 ft | 2 kts | 88° |
| 2026-04-26 13:57 | 25.24224 | 55.37009 | 76 ft | 2 kts | 102° |
| 2026-04-26 13:57 | 25.24229 | 55.36993 | 76 ft | 2 kts | 115° |
| 2026-04-26 13:57 | 25.24233 | 55.36985 | 76 ft | 1 kts | 122° |
| 2026-04-26 14:00 | 25.24228 | 55.36993 | 76 ft | 5 kts | 122° |
| 2026-04-26 14:01 | 25.24182 | 55.37074 | 76 ft | 9 kts | 121° |
| 2026-04-26 14:01 | 25.24153 | 55.37126 | 76 ft | 8 kts | 121° |
| 2026-04-26 14:01 | 25.24133 | 55.37162 | 76 ft | 7 kts | 120° |
| 2026-04-26 14:01 | 25.24098 | 55.37230 | 76 ft | 11 kts | 120° |
| 2026-04-26 14:02 | 25.24058 | 55.37301 | 76 ft | 10 kts | 121° |
| 2026-04-26 14:02 | 25.24023 | 55.37366 | 76 ft | 9 kts | 121° |
| 2026-04-26 14:02 | 25.23985 | 55.37434 | 76 ft | 11 kts | 120° |
| 2026-04-26 14:02 | 25.23967 | 55.37522 | 76 ft | 12 kts | 81° |
| 2026-04-26 14:03 | 25.24015 | 55.37605 | 76 ft | 13 kts | 40° |
| 2026-04-26 14:03 | 25.24094 | 55.37658 | 76 ft | 12 kts | 28° |
| 2026-04-26 14:03 | 25.24161 | 55.37702 | 76 ft | 10 kts | 30° |
| 2026-04-26 14:03 | 25.24217 | 55.37738 | 76 ft | 9 kts | 31° |
| 2026-04-26 14:04 | 25.24270 | 55.37774 | 76 ft | 8 kts | 32° |
| 2026-04-26 14:04 | 25.24326 | 55.37813 | 76 ft | 7 kts | 33° |
| 2026-04-26 14:04 | 25.24353 | 55.37833 | 76 ft | 0 kts | 34° |
| 2026-04-26 14:04 | 25.24370 | 55.37846 | 76 ft | 8 kts | 34° |
| 2026-04-26 14:05 | 25.24438 | 55.37896 | 76 ft | 11 kts | 33° |
| 2026-04-26 14:05 | 25.24499 | 55.37942 | 76 ft | 9 kts | 34° |
| 2026-04-26 14:05 | 25.24553 | 55.37981 | 76 ft | 8 kts | 34° |
| 2026-04-26 14:05 | 25.24594 | 55.38012 | 76 ft | 7 kts | 34° |
| 2026-04-26 14:06 | 25.24628 | 55.38038 | 76 ft | 6 kts | 34° |
| 2026-04-26 14:06 | 25.24639 | 55.38045 | 76 ft | 0 kts | 32° |
| 2026-04-26 14:06 | 25.24640 | 55.38047 | 76 ft | 0 kts | 32° |
| 2026-04-26 14:10 | 25.24643 | 55.38049 | 76 ft | 3 kts | 32° |
| 2026-04-26 14:10 | 25.24693 | 55.38083 | 76 ft | 8 kts | 32° |
| 2026-04-26 14:10 | 25.24742 | 55.38110 | 76 ft | 6 kts | 9° |
| 2026-04-26 14:10 | 25.24783 | 55.38075 | 76 ft | 9 kts | 299° |
| 2026-04-26 14:11 | 25.25084 | 55.37528 | 76 ft | 103 kts | 301° |
| 2026-04-26 14:11 | 25.25567 | 55.36657 | 77 ft | 163 kts | 301° |
| 2026-04-26 14:11 | 25.26226 | 55.35465 | 363 ft | 189 kts | 301° |
| 2026-04-26 14:12 | 25.26898 | 55.34238 | 1094 ft | 193 kts | 301° |
| 2026-04-26 14:12 | 25.27584 | 55.32971 | 1774 ft | 194 kts | 301° |
| 2026-04-26 14:12 | 25.28302 | 55.31647 | 2213 ft | 205 kts | 301° |
| 2026-04-26 14:12 | 25.29065 | 55.30291 | 2700 ft | 214 kts | 302° |
| 2026-04-26 14:13 | 25.30598 | 55.27266 | 3467 ft | 245 kts | 282° |
| 2026-04-26 14:13 | 25.30857 | 55.25356 | 4073 ft | 254 kts | 279° |
| 2026-04-26 14:13 | 25.31081 | 55.23447 | 4829 ft | 256 kts | 278° |
| 2026-04-26 14:14 | 25.31307 | 55.21503 | 5602 ft | 257 kts | 278° |
| 2026-04-26 14:14 | 25.31533 | 55.19559 | 6356 ft | 259 kts | 278° |
| 2026-04-26 14:14 | 25.31766 | 55.17545 | 7072 ft | 263 kts | 278° |
| 2026-04-26 14:14 | 25.32000 | 55.15529 | 7710 ft | 268 kts | 277° |
| 2026-04-26 14:15 | 25.32238 | 55.13474 | 8511 ft | 270 kts | 277° |
| 2026-04-26 14:15 | 25.32474 | 55.11430 | 9162 ft | 275 kts | 277° |
| 2026-04-26 14:15 | 25.32717 | 55.09315 | 9829 ft | 279 kts | 277° |
| 2026-04-26 14:15 | 25.32965 | 55.07161 | 10359 ft | 290 kts | 277° |
| 2026-04-26 14:16 | 25.33229 | 55.04872 | 10722 ft | 307 kts | 277° |
| 2026-04-26 14:16 | 25.33502 | 55.02490 | 11133 ft | 322 kts | 277° |
| 2026-04-26 14:16 | 25.33783 | 55.00037 | 11490 ft | 338 kts | 277° |
| 2026-04-26 14:16 | 25.34077 | 54.97469 | 11846 ft | 353 kts | 277° |
| 2026-04-26 14:17 | 25.34399 | 54.94649 | 12281 ft | 368 kts | 277° |
| 2026-04-26 14:17 | 25.34736 | 54.91777 | 12703 ft | 382 kts | 279° |
| 2026-04-26 14:17 | 25.35345 | 54.89053 | 13311 ft | 388 kts | 286° |
| 2026-04-26 14:17 | 25.36157 | 54.86194 | 14077 ft | 392 kts | 287° |
| 2026-04-26 14:18 | 25.36987 | 54.83306 | 14682 ft | 396 kts | 287° |
| 2026-04-26 14:18 | 25.37816 | 54.80413 | 14821 ft | 398 kts | 287° |
| 2026-04-26 14:18 | 25.38656 | 54.77481 | 14829 ft | 395 kts | 287° |
| 2026-04-26 14:18 | 25.39482 | 54.74594 | 14845 ft | 401 kts | 287° |
| 2026-04-26 14:19 | 25.40328 | 54.71632 | 15501 ft | 408 kts | 286° |
| 2026-04-26 14:19 | 25.41173 | 54.68674 | 16606 ft | 402 kts | 285° |
| 2026-04-26 14:19 | 25.42010 | 54.65734 | 17510 ft | 402 kts | 285° |
| 2026-04-26 14:19 | 25.42848 | 54.62788 | 18166 ft | 408 kts | 285° |
| 2026-04-26 14:20 | 25.43641 | 54.60026 | 18777 ft | 413 kts | 286° |
| 2026-04-26 14:20 | 25.44530 | 54.57029 | 19541 ft | 416 kts | 286° |
| 2026-04-26 14:20 | 25.45434 | 54.53988 | 20334 ft | 417 kts | 286° |
| 2026-04-26 14:20 | 25.46351 | 54.50894 | 21053 ft | 420 kts | 286° |
| 2026-04-26 14:21 | 25.47257 | 54.47833 | 21713 ft | 424 kts | 286° |
| 2026-04-26 14:21 | 25.48181 | 54.44707 | 22389 ft | 427 kts | 286° |
| 2026-04-26 14:21 | 25.49102 | 54.41586 | 23021 ft | 430 kts | 286° |
| 2026-04-26 14:21 | 25.50034 | 54.38425 | 23617 ft | 434 kts | 286° |
| 2026-04-26 14:22 | 25.50967 | 54.35260 | 24226 ft | 436 kts | 286° |
| 2026-04-26 14:22 | 25.51902 | 54.32082 | 24861 ft | 438 kts | 285° |
| 2026-04-26 14:22 | 25.52847 | 54.28867 | 25508 ft | 440 kts | 286° |
| 2026-04-26 14:22 | 25.53798 | 54.25628 | 26039 ft | 444 kts | 286° |
| 2026-04-26 14:23 | 25.54747 | 54.22396 | 26541 ft | 449 kts | 286° |
| 2026-04-26 14:23 | 25.55638 | 54.19360 | 27029 ft | 452 kts | 286° |
| 2026-04-26 14:23 | 25.56608 | 54.16054 | 27598 ft | 454 kts | 286° |
| 2026-04-26 14:23 | 25.57583 | 54.12728 | 28117 ft | 457 kts | 286° |
| 2026-04-26 14:24 | 25.58563 | 54.09383 | 28617 ft | 461 kts | 286° |
| 2026-04-26 14:24 | 25.59549 | 54.06010 | 29112 ft | 464 kts | 286° |
| 2026-04-26 14:24 | 25.60515 | 54.02638 | 29773 ft | 462 kts | 286° |
| 2026-04-26 14:24 | 25.61469 | 53.99291 | 30742 ft | 453 kts | 286° |
| 2026-04-26 14:25 | 25.62131 | 53.96967 | 31488 ft | 445 kts | 287° |
| 2026-04-26 14:25 | 25.62838 | 53.94483 | 32257 ft | 436 kts | 287° |
| 2026-04-26 14:25 | 25.63739 | 53.91316 | 33104 ft | 429 kts | 287° |
| 2026-04-26 14:25 | 25.64633 | 53.88171 | 33720 ft | 428 kts | 287° |
| 2026-04-26 14:26 | 25.65532 | 53.85007 | 33822 ft | 434 kts | 287° |
| 2026-04-26 14:26 | 25.67336 | 53.78650 | 33831 ft | 430 kts | 287° |
| 2026-04-26 14:27 | 25.69126 | 53.72332 | 33828 ft | 431 kts | 287° |
| 2026-04-26 14:27 | 25.70779 | 53.66459 | 33828 ft | 430 kts | 287° |
| 2026-04-26 14:28 | 25.72558 | 53.60127 | 33829 ft | 430 kts | 287° |
| 2026-04-26 14:28 | 25.74325 | 53.53825 | 33828 ft | 430 kts | 287° |
| 2026-04-26 14:29 | 25.76094 | 53.47513 | 33826 ft | 430 kts | 287° |
| 2026-04-26 14:29 | 25.77668 | 53.41907 | 33831 ft | 430 kts | 287° |
| 2026-04-26 14:30 | 25.79439 | 53.35587 | 33828 ft | 430 kts | 287° |
| 2026-04-26 14:30 | 25.81208 | 53.29261 | 33847 ft | 430 kts | 286° |
| 2026-04-26 14:31 | 25.82973 | 53.22939 | 33853 ft | 429 kts | 287° |
| 2026-04-26 14:31 | 25.84632 | 53.17484 | 33857 ft | 431 kts | 292° |
| 2026-04-26 14:32 | 25.87083 | 53.11439 | 33861 ft | 430 kts | 292° |
| 2026-04-26 14:32 | 25.89548 | 53.05396 | 33867 ft | 429 kts | 292° |
| 2026-04-26 14:33 | 25.91838 | 52.99771 | 33862 ft | 429 kts | 292° |
| 2026-04-26 14:33 | 25.94031 | 52.94371 | 33862 ft | 429 kts | 292° |
| 2026-04-26 14:34 | 25.96472 | 52.88351 | 33866 ft | 429 kts | 292° |
| 2026-04-26 14:34 | 25.98933 | 52.82272 | 33867 ft | 429 kts | 292° |
| 2026-04-26 14:35 | 26.01361 | 52.76265 | 33864 ft | 428 kts | 292° |
| 2026-04-26 14:35 | 26.03940 | 52.70284 | 33866 ft | 428 kts | 295° |
| 2026-04-26 14:36 | 26.06497 | 52.64661 | 33864 ft | 430 kts | 295° |
| 2026-04-26 14:36 | 26.09178 | 52.58731 | 33866 ft | 429 kts | 294° |
| 2026-04-26 14:37 | 26.11852 | 52.52793 | 33865 ft | 429 kts | 294° |
| 2026-04-26 14:37 | 26.14523 | 52.46879 | 33866 ft | 429 kts | 294° |
| 2026-04-26 14:38 | 26.16909 | 52.41589 | 33866 ft | 430 kts | 295° |
| 2026-04-26 14:38 | 26.19466 | 52.35910 | 33866 ft | 429 kts | 294° |
| 2026-04-26 14:39 | 26.22145 | 52.29946 | 33880 ft | 431 kts | 294° |
| 2026-04-26 14:39 | 26.24742 | 52.23964 | 33884 ft | 429 kts | 293° |
| 2026-04-26 14:40 | 26.27320 | 52.17995 | 33880 ft | 429 kts | 293° |
| 2026-04-26 14:40 | 26.29937 | 52.11936 | 33879 ft | 429 kts | 293° |
| 2026-04-26 14:41 | 26.32552 | 52.05876 | 33871 ft | 429 kts | 293° |
| 2026-04-26 14:41 | 26.35081 | 52.00021 | 33868 ft | 429 kts | 293° |
| 2026-04-26 14:42 | 26.37392 | 51.94633 | 33857 ft | 427 kts | 290° |
| 2026-04-26 14:42 | 26.39526 | 51.88429 | 33866 ft | 427 kts | 289° |
| 2026-04-26 14:43 | 26.41610 | 51.82212 | 33866 ft | 427 kts | 289° |
| 2026-04-26 14:43 | 26.43678 | 51.76038 | 33865 ft | 427 kts | 288° |
| 2026-04-26 14:44 | 26.45463 | 51.70707 | 33866 ft | 426 kts | 289° |
| 2026-04-26 14:44 | 26.47537 | 51.64501 | 33865 ft | 427 kts | 289° |
| 2026-04-26 14:45 | 26.49599 | 51.58317 | 33865 ft | 427 kts | 288° |
| 2026-04-26 14:45 | 26.51674 | 51.52078 | 33863 ft | 427 kts | 288° |
| 2026-04-26 14:46 | 26.53264 | 51.47292 | 33864 ft | 427 kts | 288° |
| 2026-04-26 14:46 | 26.55235 | 51.41351 | 33864 ft | 428 kts | 288° |
| 2026-04-26 14:47 | 26.57286 | 51.35157 | 33861 ft | 426 kts | 288° |
| 2026-04-26 14:47 | 26.59343 | 51.28935 | 33881 ft | 427 kts | 288° |
| 2026-04-26 14:48 | 26.61405 | 51.22715 | 33880 ft | 426 kts | 288° |
| 2026-04-26 14:48 | 26.63072 | 51.17677 | 33880 ft | 427 kts | 288° |
| 2026-04-26 14:49 | 26.65125 | 51.11465 | 33880 ft | 427 kts | 288° |
| 2026-04-26 14:49 | 26.67181 | 51.05231 | 33883 ft | 426 kts | 288° |
| 2026-04-26 14:50 | 26.69221 | 50.99010 | 33883 ft | 427 kts | 287° |
| 2026-04-26 14:50 | 26.71063 | 50.93254 | 33882 ft | 426 kts | 287° |
| 2026-04-26 14:51 | 26.73049 | 50.87034 | 33881 ft | 427 kts | 287° |
| 2026-04-26 14:51 | 26.75041 | 50.80794 | 33882 ft | 426 kts | 287° |
| 2026-04-26 14:52 | 26.77035 | 50.74540 | 33877 ft | 427 kts | 287° |
| 2026-04-26 14:52 | 26.78978 | 50.68438 | 33877 ft | 426 kts | 288° |
| 2026-04-26 14:53 | 26.81773 | 50.62824 | 33874 ft | 434 kts | 303° |
| 2026-04-26 14:53 | 26.85619 | 50.57520 | 33870 ft | 436 kts | 304° |
| 2026-04-26 14:54 | 26.89434 | 50.52293 | 33867 ft | 435 kts | 304° |
| 2026-04-26 14:54 | 26.93303 | 50.47101 | 33867 ft | 437 kts | 308° |
| 2026-04-26 14:55 | 26.96420 | 50.43445 | 33871 ft | 437 kts | 308° |
| 2026-04-26 14:55 | 27.00629 | 50.38501 | 33872 ft | 440 kts | 308° |
| 2026-04-26 14:56 | 27.04818 | 50.33546 | 33902 ft | 437 kts | 307° |
| 2026-04-26 14:56 | 27.08993 | 50.28533 | 33903 ft | 438 kts | 307° |
| 2026-04-26 14:57 | 27.13117 | 50.23555 | 33905 ft | 437 kts | 307° |
| 2026-04-26 14:57 | 27.17526 | 50.18782 | 33904 ft | 444 kts | 316° |
| 2026-04-26 14:58 | 27.22512 | 50.14655 | 33907 ft | 445 kts | 316° |
| 2026-04-26 14:58 | 27.27433 | 50.10601 | 33903 ft | 444 kts | 316° |
| 2026-04-26 14:59 | 27.32305 | 50.06578 | 33902 ft | 445 kts | 316° |
| 2026-04-26 14:59 | 27.37299 | 50.02428 | 33899 ft | 443 kts | 315° |
| 2026-04-26 15:00 | 27.42189 | 49.98121 | 33898 ft | 443 kts | 315° |
| 2026-04-26 15:00 | 27.47022 | 49.93855 | 33895 ft | 442 kts | 315° |
| 2026-04-26 15:01 | 27.51879 | 49.89570 | 33895 ft | 442 kts | 315° |
| 2026-04-26 15:01 | 27.56702 | 49.85316 | 33889 ft | 443 kts | 315° |
| 2026-04-26 15:02 | 27.61574 | 49.81014 | 33882 ft | 441 kts | 315° |
| 2026-04-26 15:02 | 27.66074 | 49.77036 | 33887 ft | 444 kts | 315° |
| 2026-04-26 15:03 | 27.70921 | 49.72749 | 33892 ft | 442 kts | 315° |
| 2026-04-26 15:03 | 27.75767 | 49.68457 | 33889 ft | 442 kts | 314° |
| 2026-04-26 15:04 | 27.80586 | 49.64177 | 33887 ft | 442 kts | 314° |
| 2026-04-26 15:04 | 27.85420 | 49.59861 | 33892 ft | 442 kts | 314° |
| 2026-04-26 15:05 | 27.89849 | 49.55901 | 33888 ft | 443 kts | 314° |
| 2026-04-26 15:05 | 27.94312 | 49.51910 | 33887 ft | 440 kts | 314° |
| 2026-04-26 15:06 | 27.99165 | 49.47562 | 33883 ft | 441 kts | 314° |
| 2026-04-26 15:06 | 28.03944 | 49.43273 | 33888 ft | 441 kts | 314° |
| 2026-04-26 15:07 | 28.11125 | 49.36718 | 33891 ft | 442 kts | 314° |
| 2026-04-26 15:07 | 28.15908 | 49.32349 | 33904 ft | 440 kts | 313° |
| 2026-04-26 15:08 | 28.20655 | 49.28007 | 33907 ft | 440 kts | 313° |
| 2026-04-26 15:08 | 28.25411 | 49.23654 | 33911 ft | 439 kts | 313° |
| 2026-04-26 15:09 | 28.30199 | 49.19265 | 33892 ft | 439 kts | 313° |
| 2026-04-26 15:09 | 28.34919 | 49.14936 | 33900 ft | 439 kts | 313° |
| 2026-04-26 15:10 | 28.38908 | 49.11271 | 33900 ft | 441 kts | 313° |
| 2026-04-26 15:10 | 28.44262 | 49.06913 | 33909 ft | 442 kts | 318° |
| 2026-04-26 15:11 | 28.48984 | 49.03361 | 33899 ft | 446 kts | 318° |
| 2026-04-26 15:11 | 28.53991 | 48.99562 | 33906 ft | 443 kts | 318° |
| 2026-04-26 15:12 | 28.59110 | 48.95649 | 33899 ft | 447 kts | 318° |
| 2026-04-26 15:12 | 28.64290 | 48.91678 | 33897 ft | 445 kts | 318° |
| 2026-04-26 15:13 | 28.69417 | 48.87736 | 33896 ft | 445 kts | 317° |
| 2026-04-26 15:13 | 28.73540 | 48.84560 | 33893 ft | 445 kts | 317° |
| 2026-04-26 15:14 | 28.79514 | 48.79951 | 33892 ft | 446 kts | 318° |
| 2026-04-26 15:14 | 28.84672 | 48.75993 | 33891 ft | 446 kts | 318° |
| 2026-04-26 15:15 | 28.89875 | 48.72008 | 33882 ft | 447 kts | 318° |
| 2026-04-26 15:15 | 28.95052 | 48.68038 | 33887 ft | 449 kts | 318° |
| 2026-04-26 15:16 | 29.00278 | 48.64026 | 33880 ft | 448 kts | 318° |
| 2026-04-26 15:16 | 29.05480 | 48.60026 | 33886 ft | 449 kts | 318° |
| 2026-04-26 15:17 | 29.08920 | 48.57377 | 33882 ft | 450 kts | 318° |
| 2026-04-26 15:17 | 29.14975 | 48.52711 | 33889 ft | 450 kts | 318° |
| 2026-04-26 15:18 | 29.20145 | 48.48722 | 33885 ft | 449 kts | 317° |
| 2026-04-26 15:18 | 29.25343 | 48.44705 | 33886 ft | 450 kts | 317° |
| 2026-04-26 15:19 | 29.30539 | 48.40686 | 33885 ft | 447 kts | 317° |
| 2026-04-26 15:19 | 29.35501 | 48.36840 | 33886 ft | 451 kts | 317° |
| 2026-04-26 15:20 | 29.40676 | 48.32829 | 33905 ft | 448 kts | 317° |
| 2026-04-26 15:20 | 29.45908 | 48.28886 | 33905 ft | 455 kts | 321° |